createdAt,value
2022-09-07T00:04:58.851Z,80
2022-09-07T00:09:56.854Z,81
2022-09-07T00:14:56.369Z,81
2022-09-07T00:19:56.053Z,82
2022-09-07T00:24:55.453Z,83
2022-09-07T00:29:55.860Z,83
2022-09-07T00:34:53.104Z,84
2022-09-07T00:39:53.228Z,85
2022-09-07T00:44:52.783Z,85
2022-09-07T00:49:52.123Z,86
2022-09-07T00:54:51.138Z,86
2022-09-07T00:58:52.717Z,86
2022-09-07T01:03:52.650Z,87
2022-09-07T01:08:52.944Z,87
2022-09-07T01:13:52.177Z,87
2022-09-07T01:18:50.034Z,87
2022-09-07T01:23:50.535Z,88
2022-09-07T01:28:51.165Z,88
2022-09-07T01:33:49.883Z,87
2022-09-07T01:38:49.212Z,85
2022-09-07T01:43:48.658Z,82
2022-09-07T01:48:48.869Z,80
2022-09-07T01:53:48.234Z,79
2022-09-07T01:58:46.729Z,78
2022-09-07T02:03:46.135Z,78
2022-09-07T02:08:46.156Z,78
2022-09-07T02:13:45.069Z,79
2022-09-07T02:18:45.832Z,80
2022-09-07T02:23:42.899Z,81
2022-09-07T02:28:42.673Z,82
2022-09-07T02:33:42.539Z,83
2022-09-07T02:38:42.477Z,83
2022-09-07T02:43:41.721Z,84
2022-09-07T02:48:41.060Z,84
2022-09-07T02:53:40.126Z,84
2022-09-07T02:58:40.237Z,84
2022-09-07T03:00:09.333Z,84
2022-09-07T03:05:02.188Z,84
2022-09-07T03:10:31.989Z,84
2022-09-07T03:15:00.266Z,84
2022-09-07T03:20:00.003Z,84
2022-09-07T03:24:59.745Z,84
2022-09-07T03:29:58.901Z,85
2022-09-07T03:34:59.313Z,85
2022-09-07T03:39:56.402Z,86
2022-09-07T03:44:56.019Z,87
2022-09-07T03:49:56.045Z,88
2022-09-07T03:54:55.605Z,88
2022-09-07T03:58:55.920Z,88
2022-09-07T04:04:02.329Z,88
2022-09-07T04:08:54.917Z,88
2022-09-07T04:13:55.330Z,87
2022-09-07T04:18:54.730Z,86
2022-09-07T04:23:54.841Z,86
2022-09-07T04:28:53.918Z,86
2022-09-07T04:33:53.966Z,86
2022-09-07T04:38:53.267Z,86
2022-09-07T04:43:51.998Z,85
2022-09-07T04:48:51.073Z,85
2022-09-07T04:53:51.438Z,85
2022-09-07T04:58:50.071Z,85
2022-09-07T05:03:49.610Z,85
2022-09-07T05:08:49.133Z,85
2022-09-07T05:13:49.463Z,85
2022-09-07T05:18:49.001Z,86
2022-09-07T05:23:47.101Z,86
2022-09-07T05:28:46.602Z,86
2022-09-07T05:34:32.418Z,87
2022-09-07T05:38:45.818Z,87
2022-09-07T05:44:44.880Z,87
2022-09-07T05:48:43.252Z,87
2022-09-07T05:53:43.047Z,87
2022-09-07T05:58:42.438Z,87
2022-09-07T06:00:05.180Z,87
2022-09-07T06:05:03.653Z,87
2022-09-07T06:10:45.976Z,87
2022-09-07T06:15:02.092Z,87
2022-09-07T06:20:01.538Z,86
2022-09-07T06:25:00.531Z,86
2022-09-07T06:29:59.771Z,86
2022-09-07T06:35:00.011Z,85
2022-09-07T06:40:01.695Z,85
2022-09-07T06:44:58.521Z,85
2022-09-07T06:49:58.066Z,85
2022-09-07T06:59:19.189Z,84
2022-09-07T07:04:16.797Z,84
2022-09-07T07:09:17.119Z,83
2022-09-07T07:14:16.288Z,81
2022-09-07T07:19:17.347Z,77
2022-09-07T07:24:14.602Z,75
2022-09-07T07:29:18.639Z,74
2022-09-07T07:34:15.151Z,72
2022-09-07T07:40:15.156Z,72
2022-09-07T07:44:13.132Z,71
2022-09-07T07:49:23.541Z,70
2022-09-07T07:54:23.108Z,70
2022-09-07T07:59:02.929Z,69
2022-09-07T08:04:00.248Z,69
2022-09-07T08:09:20.608Z,69
2022-09-07T08:13:59.928Z,68
2022-09-07T08:18:59.539Z,67
2022-09-07T08:23:57.711Z,67
2022-09-07T08:28:57.422Z,65
2022-09-07T08:33:57.353Z,66
2022-09-07T08:38:58.499Z,66
2022-09-07T08:43:55.550Z,67
2022-09-07T08:48:55.755Z,66
2022-09-07T08:53:55.657Z,67
2022-09-07T08:58:55.209Z,66
2022-09-07T09:06:12.233Z,65
2022-09-07T09:08:53.858Z,63
2022-09-07T09:13:53.433Z,63
2022-09-07T09:18:53.469Z,63
2022-09-07T09:23:53.033Z,62
2022-09-07T09:28:51.895Z,62
2022-09-07T09:33:51.217Z,62
2022-09-07T09:38:51.463Z,61
2022-09-07T09:43:50.309Z,61
2022-09-07T09:48:51.232Z,60
2022-09-07T09:53:48.275Z,60
2022-09-07T09:59:57.534Z,60
2022-09-07T10:03:55.599Z,60
2022-09-07T10:08:46.698Z,59
2022-09-07T10:13:46.805Z,60
2022-09-07T10:18:46.272Z,58
2022-09-07T10:23:45.722Z,58
2022-09-07T10:29:08.824Z,59
2022-09-07T10:33:43.964Z,57
2022-09-07T10:38:43.747Z,57
2022-09-07T10:43:42.720Z,57
2022-09-07T10:48:43.426Z,59
2022-09-07T10:53:43.170Z,57
2022-09-07T10:59:03.206Z,57
2022-09-07T11:03:58.206Z,57
2022-09-07T11:08:28.602Z,55
2022-09-07T11:13:27.585Z,55
2022-09-07T11:18:27.070Z,57
2022-09-07T11:23:26.806Z,55
2022-09-07T11:28:24.654Z,51
2022-09-07T11:33:23.987Z,53
2022-09-07T11:38:23.645Z,53
2022-09-07T11:43:24.237Z,51
2022-09-07T11:48:22.115Z,52
2022-09-07T11:53:22.042Z,51
2022-09-07T11:58:22.215Z,50
2022-09-07T11:59:43.481Z,50
2022-09-07T12:04:43.546Z,50
2022-09-07T12:09:42.860Z,49
2022-09-07T12:14:43.457Z,50
2022-09-07T12:19:42.787Z,49
2022-09-07T12:24:41.959Z,49
2022-09-07T12:29:45.952Z,48
2022-09-07T12:34:41.412Z,47
2022-09-07T12:39:40.146Z,47
2022-09-07T12:44:40.943Z,46
2022-09-07T12:49:37.694Z,46
2022-09-07T12:54:37.454Z,47
2022-09-07T12:58:52.040Z,47
2022-09-07T13:03:52.679Z,44
2022-09-07T13:08:48.792Z,45
2022-09-07T13:14:12.002Z,44
2022-09-07T13:18:48.953Z,45
2022-09-07T13:23:48.522Z,45
2022-09-07T13:28:48.091Z,44
2022-09-07T13:33:47.997Z,44
2022-09-07T13:38:47.882Z,44
2022-09-07T13:43:47.125Z,45
2022-09-07T13:48:45.856Z,46
2022-09-07T13:53:45.168Z,47
2022-09-07T13:58:44.561Z,48
2022-09-07T14:03:43.648Z,48
2022-09-07T14:08:43.013Z,48
2022-09-07T14:13:40.660Z,47
2022-09-07T14:18:40.066Z,46
2022-09-07T14:23:40.014Z,47
2022-09-07T14:28:38.878Z,48
2022-09-07T14:33:46.681Z,48
2022-09-07T14:39:05.587Z,48
2022-09-07T14:43:37.067Z,48
2022-09-07T14:48:39.052Z,48
2022-09-07T14:53:37.032Z,47
2022-09-07T14:58:34.114Z,47
2022-09-07T14:59:55.046Z,47
2022-09-07T15:04:55.227Z,46
2022-09-07T15:09:55.502Z,45
2022-09-07T15:14:53.164Z,45
2022-09-07T15:19:53.242Z,44
2022-09-07T15:24:52.129Z,44
2022-09-07T15:29:52.868Z,46
2022-09-07T15:34:49.203Z,48
2022-09-07T15:39:48.647Z,49
2022-09-07T15:44:50.887Z,49
2022-09-07T15:49:53.915Z,50
2022-09-07T15:54:46.512Z,50
2022-09-07T15:58:48.223Z,50
2022-09-07T16:03:49.889Z,49
2022-09-07T16:08:51.314Z,49
2022-09-07T16:13:48.388Z,49
2022-09-07T16:18:47.634Z,48
2022-09-07T16:23:45.226Z,48
2022-09-07T16:28:45.199Z,50
2022-09-07T16:33:44.603Z,51
2022-09-07T16:38:46.113Z,52
2022-09-07T16:43:42.940Z,52
2022-09-07T16:48:42.884Z,53
2022-09-07T16:53:42.904Z,53
2022-09-07T16:58:41.469Z,55
2022-09-07T17:03:41.442Z,56
2022-09-07T17:08:39.676Z,56
2022-09-07T17:13:38.776Z,57
2022-09-07T17:19:32.328Z,58
2022-09-07T17:23:54.612Z,58
2022-09-07T17:28:38.275Z,59
2022-09-07T17:33:37.364Z,58
2022-09-07T17:39:16.159Z,59
2022-09-07T17:43:45.467Z,59
2022-09-07T17:48:36.662Z,60
2022-09-07T17:53:36.210Z,59
2022-09-07T17:58:34.450Z,60
2022-09-07T18:00:13.236Z,61
2022-09-07T18:04:55.546Z,64
2022-09-07T18:09:54.176Z,65
2022-09-07T18:14:55.182Z,67
2022-09-07T18:19:52.173Z,70
2022-09-07T18:24:51.906Z,74
2022-09-07T18:29:51.328Z,79
2022-09-07T18:34:51.787Z,83
2022-09-07T18:39:48.753Z,84
2022-09-07T18:45:29.355Z,85
2022-09-07T18:49:48.124Z,87
2022-09-07T18:54:47.643Z,88
2022-09-07T18:59:18.173Z,88
2022-09-07T19:04:17.747Z,89
2022-09-07T19:09:17.300Z,90
2022-09-07T19:14:06.394Z,90
2022-09-07T19:19:06.049Z,90
2022-09-07T19:24:05.450Z,89
2022-09-07T19:29:04.864Z,88
2022-09-07T19:34:04.150Z,86
2022-09-07T19:39:02.634Z,84
2022-09-07T19:44:02.106Z,85
2022-09-07T19:49:02.097Z,86
2022-09-07T19:54:01.462Z,87
2022-09-07T19:58:58.617Z,88
2022-09-07T20:03:56.048Z,88
2022-09-07T20:08:55.285Z,89
2022-09-07T20:13:55.319Z,90
2022-09-07T20:18:57.450Z,90
2022-09-07T20:23:54.748Z,90
2022-09-07T20:29:27.163Z,90
2022-09-07T20:33:54.022Z,89
2022-09-07T20:38:52.363Z,90
2022-09-07T20:43:51.616Z,90
2022-09-07T20:48:51.820Z,90
2022-09-07T20:53:51.062Z,91
2022-09-07T20:58:38.223Z,91
2022-09-07T21:03:35.699Z,91
2022-09-07T21:08:35.196Z,91
2022-09-07T21:13:35.416Z,91
2022-09-07T21:18:34.800Z,91
2022-09-07T21:23:34.307Z,92
2022-09-07T21:28:33.159Z,92
2022-09-07T21:33:33.284Z,92
2022-09-07T21:38:33.335Z,92
2022-09-07T21:43:32.897Z,92
2022-09-07T21:48:31.427Z,93
2022-09-07T21:53:30.909Z,93
2022-09-07T21:58:16.308Z,93
2022-09-07T22:03:15.802Z,94
2022-09-07T22:08:13.954Z,94
2022-09-07T22:13:13.837Z,94
2022-09-07T22:18:13.554Z,94
2022-09-07T22:23:23.610Z,94
2022-09-07T22:28:21.529Z,94
2022-09-07T22:33:21.924Z,94
2022-09-07T22:38:22.062Z,94
2022-09-07T22:43:19.380Z,94
2022-09-07T22:48:19.534Z,95
2022-09-07T22:53:19.536Z,95
2022-09-07T22:58:20.379Z,94
2022-09-07T22:59:41.419Z,94
2022-09-07T23:04:41.525Z,93
2022-09-07T23:09:40.775Z,92
2022-09-07T23:14:40.553Z,91
2022-09-07T23:19:38.350Z,91
2022-09-07T23:24:37.991Z,90
2022-09-07T23:29:37.731Z,90
2022-09-07T23:34:37.869Z,90
2022-09-07T23:39:36.150Z,90
2022-09-07T23:44:35.995Z,91
2022-09-07T23:49:35.930Z,91
2022-09-07T23:54:35.526Z,91
2022-09-07T23:59:17.149Z,91
